Time;durP1;ratioP1;P1;durP2;ratioP2;P2;SDS_P1;SDS_P2;PMS_P1;PMS_P2;Temp;Humidity;BMP_temperature;BMP_pressure;BME280_temperature;BME280_humidity;BME280_pressure;Samples;Min_cycle;Max_cycle;Signal;HPM_P1;HPM_P2
2023/03/04 00:01:42;;;;;;;13.82;5.32;;;7.60;99.90;;;;;;5120346;28;20031;-64
2023/03/04 00:04:08;;;;;;;14.00;5.38;;;7.60;99.90;;;;;;5120328;28;20032;-63
2023/03/04 00:06:34;;;;;;;13.50;4.72;;;7.60;99.90;;;;;;5120240;28;20035;-63
2023/03/04 00:09:02;;;;;;;7.30;4.18;;;7.60;99.90;;;;;;5120838;28;20032;-63
2023/03/04 00:11:28;;;;;;;13.93;4.35;;;7.60;99.90;;;;;;5102450;28;20037;-63
2023/03/04 00:13:55;;;;;;;18.85;5.20;;;7.60;99.90;;;;;;5085672;28;20118;-63
2023/03/04 00:16:20;;;;;;;18.20;5.38;;;7.60;99.90;;;;;;5120014;28;20080;-63
2023/03/04 00:18:46;;;;;;;16.58;4.95;;;7.70;99.90;;;;;;5120312;28;20039;-63
2023/03/04 00:21:12;;;;;;;15.40;5.57;;;7.70;99.90;;;;;;5120028;28;20111;-63
2023/03/04 00:23:40;;;;;;;14.20;5.55;;;7.70;99.90;;;;;;5119994;28;20046;-64
2023/03/04 00:26:08;;;;;;;9.75;4.57;;;7.70;99.90;;;;;;5119125;28;20032;-64
2023/03/04 00:28:34;;;;;;;10.88;4.55;;;7.60;99.90;;;;;;5119880;28;20028;-65
2023/03/04 00:31:00;;;;;;;9.88;4.35;;;7.70;99.90;;;;;;5119143;28;20284;-63
2023/03/04 00:33:26;;;;;;;14.07;4.80;;;7.70;99.90;;;;;;5119037;28;20095;-63
2023/03/04 00:35:52;;;;;;;14.07;5.15;;;7.80;99.90;;;;;;5118975;28;20307;-64
2023/03/04 00:38:18;;;;;;;14.18;4.47;;;7.70;99.90;;;;;;5101933;28;20189;-63
2023/03/04 00:40:43;;;;;;;14.57;5.10;;;7.70;99.90;;;;;;5119173;28;20032;-64
2023/03/04 00:43:09;;;;;;;16.92;4.85;;;7.80;99.90;;;;;;5119611;28;20032;-65
2023/03/04 00:45:35;;;;;;;11.20;4.72;;;7.80;99.90;;;;;;5119515;28;20042;-64
2023/03/04 00:48:01;;;;;;;16.23;4.93;;;7.80;99.90;;;;;;5101664;28;20098;-63
2023/03/04 00:50:27;;;;;;;14.02;4.57;;;7.80;99.90;;;;;;5101599;28;20028;-63
2023/03/04 00:52:53;;;;;;;15.95;4.38;;;7.80;99.90;;;;;;5118321;28;20077;-64
2023/03/04 00:55:19;;;;;;;12.45;4.57;;;7.80;99.90;;;;;;5118934;28;20346;-63
2023/03/04 00:57:45;;;;;;;11.82;4.50;;;7.70;99.90;;;;;;5118526;28;20035;-64
2023/03/04 01:00:12;;;;;;;17.10;4.88;;;7.80;99.90;;;;;;5119139;28;20032;-64
2023/03/04 01:02:38;;;;;;;10.43;4.57;;;7.70;99.90;;;;;;5119062;28;20036;-64
2023/03/04 01:05:05;;;;;;;12.82;4.25;;;7.80;99.90;;;;;;5101435;28;20050;-63
2023/03/04 01:07:30;;;;;;;17.17;4.65;;;7.80;99.90;;;;;;5118205;28;20042;-64
2023/03/04 01:09:56;;;;;;;12.93;4.00;;;7.70;99.90;;;;;;5119380;28;20402;-63
2023/03/04 01:12:23;;;;;;;18.58;4.20;;;7.70;99.90;;;;;;5118204;28;20087;-63
2023/03/04 01:14:49;;;;;;;16.38;3.80;;;7.80;99.90;;;;;;5118476;28;20027;-63
2023/03/04 01:17:15;;;;;;;11.68;3.75;;;7.80;99.90;;;;;;5101311;28;20031;-63
2023/03/04 01:19:41;;;;;;;16.70;3.97;;;7.80;99.90;;;;;;5101144;28;20028;-64
2023/03/04 01:22:07;;;;;;;13.57;3.90;;;7.80;99.90;;;;;;5118770;28;20039;-63
2023/03/04 01:24:32;;;;;;;11.75;3.95;;;7.80;99.90;;;;;;5118783;28;20038;-63
2023/03/04 01:26:58;;;;;;;14.82;3.50;;;7.80;99.90;;;;;;5118344;28;20072;-63
2023/03/04 01:29:24;;;;;;;11.80;3.60;;;7.80;99.90;;;;;;5101063;28;20085;-63
2023/03/04 01:31:50;;;;;;;13.48;3.13;;;7.80;99.90;;;;;;5117815;28;20059;-63
2023/03/04 01:34:16;;;;;;;13.20;3.72;;;7.80;99.90;;;;;;5118518;28;20028;-64
2023/03/04 01:36:42;;;;;;;11.70;3.38;;;7.90;99.90;;;;;;5084331;28;20426;-63
2023/03/04 01:39:08;;;;;;;11.35;3.67;;;7.80;99.90;;;;;;5118428;28;20148;-63
2023/03/04 01:41:34;;;;;;;16.08;3.95;;;7.90;99.90;;;;;;5118316;28;20113;-63
2023/03/04 01:44:01;;;;;;;14.68;3.90;;;7.90;99.90;;;;;;5117640;28;20039;-63
2023/03/04 01:46:28;;;;;;;15.88;4.15;;;7.80;99.90;;;;;;5117320;28;20043;-62
2023/03/04 01:48:54;;;;;;;18.15;5.13;;;7.90;99.90;;;;;;5117623;28;20027;-63
2023/03/04 01:51:21;;;;;;;13.27;4.10;;;8.00;99.90;;;;;;5117459;28;20038;-64
2023/03/04 01:53:50;;;;;;;10.75;4.30;;;7.90;99.90;;;;;;5117202;28;20047;-64
2023/03/04 01:56:24;;;;;;;13.15;4.38;;;7.90;99.90;;;;;;5100369;28;20023;-64
2023/03/04 01:59:17;;;;;;;17.02;4.00;;;7.90;99.90;;;;;;5117204;28;20027;-63
2023/03/04 02:01:50;;;;;;;15.88;4.63;;;7.90;99.90;;;;;;5100237;28;20326;-63
2023/03/04 02:04:19;;;;;;;13.63;4.30;;;7.90;99.90;;;;;;5117433;28;20110;-64
2023/03/04 02:06:46;;;;;;;15.05;4.50;;;7.90;99.90;;;;;;5117274;28;20031;-64
2023/03/04 02:09:15;;;;;;;11.70;4.70;;;7.90;99.90;;;;;;5117269;28;20062;-63
2023/03/04 02:11:42;;;;;;;18.27;4.88;;;7.90;99.90;;;;;;5117123;28;20047;-64
2023/03/04 02:14:10;;;;;;;13.15;4.55;;;7.80;99.90;;;;;;5083457;28;20024;-64
2023/03/04 02:16:36;;;;;;;13.15;4.90;;;7.80;99.90;;;;;;5117044;28;20453;-64
2023/03/04 02:19:06;;;;;;;14.00;4.97;;;7.80;99.90;;;;;;5117716;28;20024;-64
2023/03/04 02:21:33;;;;;;;14.38;4.85;;;7.80;99.90;;;;;;5116967;28;20024;-64
2023/03/04 02:24:19;;;;;;;15.95;5.00;;;7.80;99.90;;;;;;5116966;28;20104;-64
2023/03/04 02:26:45;;;;;;;14.88;5.10;;;7.80;99.90;;;;;;5116830;28;20034;-64
2023/03/04 02:29:13;;;;;;;12.52;4.55;;;7.80;99.90;;;;;;5099891;28;20020;-64
2023/03/04 02:31:43;;;;;;;13.80;4.72;;;7.70;99.90;;;;;;5117610;28;20437;-64
2023/03/04 02:34:23;;;;;;;16.05;5.05;;;7.70;99.90;;;;;;5100030;28;20020;-64
2023/03/04 02:36:52;;;;;;;11.30;4.72;;;7.70;99.90;;;;;;5116870;28;20035;-64
2023/03/04 02:39:29;;;;;;;12.68;4.93;;;7.70;99.90;;;;;;5099777;28;20030;-64
2023/03/04 02:41:55;;;;;;;15.85;5.28;;;7.70;99.90;;;;;;5118083;28;20340;-64
2023/03/04 02:44:24;;;;;;;14.07;4.90;;;7.70;99.90;;;;;;5083223;28;20284;-64
2023/03/04 02:46:52;;;;;;;13.00;5.35;;;7.80;99.90;;;;;;5116574;28;20027;-64
2023/03/04 02:49:19;;;;;;;11.25;5.28;;;7.80;99.90;;;;;;5116718;28;20418;-63
2023/03/04 02:51:45;;;;;;;13.13;5.07;;;7.70;99.90;;;;;;5116494;28;20038;-64
2023/03/04 02:54:19;;;;;;;12.23;5.20;;;7.70;99.90;;;;;;5117110;28;20184;-64
2023/03/04 02:56:51;;;;;;;11.85;5.13;;;7.70;99.90;;;;;;5099634;28;20062;-64
2023/03/04 02:59:18;;;;;;;13.52;5.25;;;7.70;99.90;;;;;;5117835;28;20028;-64
2023/03/04 03:01:44;;;;;;;12.50;5.63;;;7.80;99.90;;;;;;5116805;28;20031;-63
2023/03/04 03:04:11;;;;;;;18.50;6.20;;;7.70;99.90;;;;;;5117279;28;20104;-64
2023/03/04 03:06:38;;;;;;;15.57;5.50;;;7.60;99.90;;;;;;5099730;28;20439;-63
2023/03/04 03:09:04;;;;;;;22.67;6.35;;;7.70;99.90;;;;;;5117223;28;20023;-63
2023/03/04 03:11:30;;;;;;;16.73;6.00;;;7.70;99.90;;;;;;5116438;28;20038;-64
2023/03/04 03:13:57;;;;;;;14.10;5.55;;;7.70;99.90;;;;;;5083633;28;20039;-64
2023/03/04 03:16:23;;;;;;;16.67;6.35;;;7.70;99.90;;;;;;5120407;28;20074;-63
2023/03/04 03:18:49;;;;;;;21.17;7.10;;;7.70;99.90;;;;;;5070104;28;20055;-64
2023/03/04 03:21:15;;;;;;;22.63;6.70;;;7.70;99.90;;;;;;5103616;28;20070;-64
2023/03/04 03:23:42;;;;;;;17.70;7.00;;;7.70;99.90;;;;;;5103414;28;20032;-64
2023/03/04 03:26:08;;;;;;;16.55;6.18;;;7.70;99.90;;;;;;5120329;28;20046;-64
2023/03/04 03:28:34;;;;;;;14.60;5.63;;;7.80;99.90;;;;;;5120569;28;20035;-64
2023/03/04 03:31:00;;;;;;;18.58;5.93;;;7.70;99.90;;;;;;5120245;28;20073;-64
2023/03/04 03:33:25;;;;;;;18.13;5.07;;;7.80;99.90;;;;;;5120270;28;20410;-64
2023/03/04 03:35:51;;;;;;;10.15;4.10;;;7.80;99.90;;;;;;5120127;28;20031;-64
2023/03/04 03:38:17;;;;;;;15.50;5.13;;;7.80;99.90;;;;;;5120295;28;20047;-64
2023/03/04 03:40:43;;;;;;;15.50;4.97;;;7.80;99.90;;;;;;5103225;28;20031;-65
2023/03/04 03:43:09;;;;;;;15.40;4.90;;;7.70;99.90;;;;;;5120760;28;20028;-65
2023/03/04 03:45:35;;;;;;;15.35;5.00;;;7.80;99.90;;;;;;5120021;28;20035;-64
2023/03/04 03:48:00;;;;;;;15.32;5.18;;;7.80;99.90;;;;;;5120014;28;20024;-64
2023/03/04 03:50:28;;;;;;;20.92;5.88;;;7.80;99.90;;;;;;5120638;28;20024;-64
2023/03/04 03:52:54;;;;;;;11.45;4.85;;;7.80;99.90;;;;;;5120047;28;20127;-64
2023/03/04 03:55:20;;;;;;;8.07;4.40;;;7.70;99.90;;;;;;5120782;28;20322;-64
2023/03/04 03:57:46;;;;;;;14.43;5.32;;;7.70;99.90;;;;;;5119703;28;20134;-64
2023/03/04 04:00:13;;;;;;;14.40;4.82;;;7.60;99.90;;;;;;5119703;28;20059;-64
2023/03/04 04:02:39;;;;;;;17.85;4.65;;;7.70;99.90;;;;;;5120757;28;20032;-64
2023/03/04 04:05:06;;;;;;;12.93;4.53;;;7.70;99.90;;;;;;5119647;28;20027;-64
2023/03/04 04:07:32;;;;;;;8.02;3.53;;;7.70;99.90;;;;;;5119512;28;20117;-64
2023/03/04 04:09:58;;;;;;;11.43;3.78;;;7.70;99.90;;;;;;5085814;28;20035;-64
2023/03/04 04:12:24;;;;;;;14.55;4.45;;;7.70;99.90;;;;;;5120234;28;20039;-64
2023/03/04 04:14:50;;;;;;;15.38;4.20;;;7.80;99.90;;;;;;5120153;28;20043;-64
2023/03/04 04:17:16;;;;;;;9.70;3.78;;;7.80;99.90;;;;;;5119366;28;20100;-64
2023/03/04 04:19:42;;;;;;;9.00;3.55;;;7.80;99.90;;;;;;5119330;28;20055;-64
2023/03/04 04:22:13;;;;;;;7.25;3.08;;;7.70;99.90;;;;;;5085565;28;20028;-64
2023/03/04 04:24:39;;;;;;;14.50;3.60;;;7.70;99.90;;;;;;5119618;28;20035;-64
2023/03/04 04:27:05;;;;;;;8.70;3.30;;;7.70;99.90;;;;;;5119292;28;20406;-64
2023/03/04 04:29:31;;;;;;;11.07;3.50;;;7.70;99.90;;;;;;5119099;28;20299;-64
2023/03/04 04:31:57;;;;;;;11.57;3.35;;;7.70;99.90;;;;;;5119714;28;20039;-64
2023/03/04 04:34:23;;;;;;;13.35;2.97;;;7.70;99.90;;;;;;5102100;28;20303;-64
2023/03/04 04:36:49;;;;;;;11.85;2.78;;;7.70;99.90;;;;;;5119056;28;20393;-64
2023/03/04 04:39:15;;;;;;;10.88;2.20;;;7.80;99.90;;;;;;5101959;28;20106;-66
2023/03/04 04:41:43;;;;;;;12.55;2.10;;;7.80;99.90;;;;;;5119667;28;20035;-64
2023/03/04 04:44:09;;;;;;;11.23;2.42;;;7.70;99.90;;;;;;5118874;28;20035;-65
2023/03/04 04:46:36;;;;;;;7.38;2.03;;;7.70;99.90;;;;;;5119448;28;20336;-65
2023/03/04 04:49:03;;;;;;;9.10;2.47;;;7.70;99.90;;;;;;5119577;28;20387;-65
2023/03/04 04:51:29;;;;;;;11.43;2.38;;;7.70;99.90;;;;;;5101521;28;20043;-65
2023/03/04 04:53:55;;;;;;;8.25;1.42;;;7.60;99.90;;;;;;5118379;28;20126;-66
2023/03/04 04:56:25;;;;;;;7.53;1.58;;;7.60;99.90;;;;;;5119463;28;20108;-66
2023/03/04 04:58:52;;;;;;;9.30;1.83;;;7.60;99.90;;;;;;5118724;28;20055;-66
2023/03/04 05:01:18;;;;;;;7.30;1.48;;;7.50;99.90;;;;;;5101823;28;20356;-67
2023/03/04 05:03:45;;;;;;;9.27;1.98;;;7.50;99.90;;;;;;5118537;28;20100;-67
2023/03/04 05:06:11;;;;;;;7.65;1.45;;;7.50;99.90;;;;;;5118430;28;20117;-66
2023/03/04 05:08:38;;;;;;;9.88;1.60;;;7.50;99.90;;;;;;5118334;28;20023;-66
2023/03/04 05:11:07;;;;;;;7.75;1.73;;;7.50;99.90;;;;;;5118428;28;20039;-66
2023/03/04 05:13:33;;;;;;;8.77;1.63;;;7.50;99.90;;;;;;5118251;28;20027;-66
2023/03/04 05:15:59;;;;;;;11.15;1.88;;;7.60;99.90;;;;;;5118950;28;20036;-66
2023/03/04 05:18:26;;;;;;;6.10;1.60;;;7.60;99.90;;;;;;5084574;28;20046;-67
2023/03/04 05:20:54;;;;;;;10.00;1.80;;;7.60;99.90;;;;;;5118882;28;20035;-66
2023/03/04 05:23:20;;;;;;;6.80;1.80;;;7.60;99.90;;;;;;5118088;28;20034;-66
2023/03/04 05:25:46;;;;;;;9.07;1.65;;;7.60;99.90;;;;;;5118715;28;20326;-66
2023/03/04 05:28:13;;;;;;;9.65;1.88;;;7.70;99.90;;;;;;5117968;28;20055;-66
2023/03/04 05:30:39;;;;;;;11.15;1.58;;;7.70;99.90;;;;;;5118706;28;20050;-66
2023/03/04 05:33:07;;;;;;;11.50;2.20;;;7.70;99.90;;;;;;5118623;28;20350;-66
2023/03/04 05:35:37;;;;;;;8.40;1.73;;;7.70;99.90;;;;;;5118787;28;20355;-66
2023/03/04 05:38:08;;;;;;;7.80;1.55;;;7.70;99.90;;;;;;5100693;28;20031;-66
2023/03/04 05:40:35;;;;;;;11.80;1.90;;;7.70;99.90;;;;;;5117842;28;20087;-66
2023/03/04 05:43:01;;;;;;;7.80;1.75;;;7.70;99.90;;;;;;5118454;28;20023;-66
2023/03/04 05:45:27;;;;;;;9.38;1.80;;;7.70;99.90;;;;;;5118557;28;20039;-66
2023/03/04 05:47:53;;;;;;;7.63;1.60;;;7.70;99.90;;;;;;5100460;28;20118;-66
2023/03/04 05:50:21;;;;;;;8.80;1.83;;;7.70;99.90;;;;;;5117616;28;20124;-66
2023/03/04 05:52:47;;;;;;;8.15;1.65;;;7.50;99.90;;;;;;5117195;28;20050;-65
2023/03/04 05:55:14;;;;;;;8.20;1.98;;;7.60;99.90;;;;;;5118217;28;20096;-65
2023/03/04 05:57:40;;;;;;;10.48;1.75;;;7.60;99.90;;;;;;5100553;28;20055;-65
2023/03/04 06:00:09;;;;;;;9.10;1.88;;;7.60;99.90;;;;;;5118355;28;20283;-66
2023/03/04 06:02:40;;;;;;;12.20;2.08;;;7.80;99.90;;;;;;5118428;28;20470;-65
2023/03/04 06:05:07;;;;;;;10.52;2.47;;;7.70;99.90;;;;;;5117388;28;20314;-66
2023/03/04 06:07:33;;;;;;;15.02;2.10;;;7.70;99.90;;;;;;5100368;28;20036;-65
2023/03/04 06:09:59;;;;;;;7.55;1.52;;;7.70;99.90;;;;;;5117935;28;20028;-66
2023/03/04 06:12:24;;;;;;;13.50;2.88;;;7.60;99.90;;;;;;5100210;28;20295;-66
2023/03/04 06:14:50;;;;;;;11.95;2.08;;;7.70;99.90;;;;;;5117829;28;20101;-66
2023/03/04 06:17:16;;;;;;;7.85;2.20;;;7.80;99.90;;;;;;5100114;28;20035;-67
2023/03/04 06:19:42;;;;;;;7.03;2.13;;;7.90;99.90;;;;;;5117025;28;20035;-66
2023/03/04 06:22:09;;;;;;;9.40;3.00;;;7.90;99.90;;;;;;5116880;28;20053;-66
2023/03/04 06:24:35;;;;;;;10.15;2.45;;;8.00;99.90;;;;;;5116885;28;20070;-66
2023/03/04 06:27:01;;;;;;;7.95;2.70;;;7.90;99.90;;;;;;5117608;28;20063;-66
2023/03/04 06:29:27;;;;;;;14.50;2.55;;;7.70;99.90;;;;;;5116884;28;20028;-67
2023/03/04 06:31:53;;;;;;;13.25;2.78;;;7.70;99.90;;;;;;5117722;28;20035;-66
2023/03/04 06:34:19;;;;;;;11.43;2.17;;;7.60;99.90;;;;;;5117680;28;20035;-66
2023/03/04 06:36:45;;;;;;;9.35;2.35;;;7.60;99.90;;;;;;5117068;28;20050;-66
2023/03/04 06:39:11;;;;;;;8.05;2.10;;;7.80;99.90;;;;;;5116787;28;20268;-66
2023/03/04 06:41:37;;;;;;;8.40;2.00;;;7.80;99.90;;;;;;5099889;28;20027;-67
2023/03/04 06:44:04;;;;;;;7.70;2.25;;;7.60;99.90;;;;;;5116642;28;20321;-65
2023/03/04 06:46:31;;;;;;;7.65;1.70;;;7.70;99.90;;;;;;5100053;28;20445;-66
2023/03/04 06:48:57;;;;;;;7.55;1.52;;;7.70;99.90;;;;;;5116786;28;20102;-65
2023/03/04 06:51:23;;;;;;;8.50;1.33;;;7.60;99.90;;;;;;5117385;28;20073;-66
2023/03/04 06:53:49;;;;;;;8.25;1.15;;;7.60;99.90;;;;;;5116645;28;20280;-66
2023/03/04 06:56:15;;;;;;;7.25;1.42;;;7.60;99.90;;;;;;5116581;28;20443;-64
2023/03/04 06:58:42;;;;;;;7.43;1.65;;;7.60;99.90;;;;;;5117786;28;20044;-64
2023/03/04 07:01:15;;;;;;;7.45;1.65;;;7.60;99.90;;;;;;5117236;28;20039;-65
2023/03/04 07:03:41;;;;;;;12.50;1.55;;;7.70;99.90;;;;;;5116400;28;20140;-64
2023/03/04 07:06:09;;;;;;;6.20;1.48;;;7.70;99.90;;;;;;5117256;28;20102;-65
2023/03/04 07:08:35;;;;;;;6.80;1.38;;;7.70;99.90;;;;;;5117241;28;20038;-65
2023/03/04 07:11:01;;;;;;;9.27;1.38;;;7.80;99.90;;;;;;5116451;28;20312;-64
2023/03/04 07:13:27;;;;;;;8.07;1.15;;;7.70;99.90;;;;;;5082614;28;20024;-66
2023/03/04 07:15:53;;;;;;;7.80;1.50;;;7.70;99.90;;;;;;5099538;28;20027;-65
2023/03/04 07:18:19;;;;;;;7.18;1.13;;;7.70;99.90;;;;;;5099538;28;20040;-65
2023/03/04 07:20:45;;;;;;;4.22;1.02;;;7.70;99.90;;;;;;5117067;28;20114;-67
2023/03/04 07:23:11;;;;;;;5.63;1.17;;;7.80;99.90;;;;;;5117220;28;20348;-66
2023/03/04 07:25:37;;;;;;;8.75;1.40;;;7.80;99.90;;;;;;5117041;28;20135;-64
2023/03/04 07:28:03;;;;;;;5.97;1.30;;;7.90;99.90;;;;;;5116936;28;20047;-65
2023/03/04 07:30:29;;;;;;;8.75;1.40;;;7.80;99.90;;;;;;5116978;28;20370;-64
2023/03/04 07:32:58;;;;;;;7.28;1.23;;;7.80;99.90;;;;;;5116379;28;20114;-65
2023/03/04 07:35:23;;;;;;;7.78;1.20;;;7.80;99.90;;;;;;5116299;28;20039;-66
2023/03/04 07:37:49;;;;;;;10.27;1.27;;;7.80;99.90;;;;;;5116347;28;20027;-66
2023/03/04 07:40:15;;;;;;;9.20;2.20;;;7.90;99.90;;;;;;5116881;28;20028;-64
2023/03/04 07:42:41;;;;;;;6.20;1.40;;;7.70;99.90;;;;;;5116180;28;20032;-65
2023/03/04 07:45:11;;;;;;;14.07;3.05;;;7.70;99.90;;;;;;5117147;28;20335;-65
2023/03/04 07:47:37;;;;;;;7.22;2.00;;;7.80;99.90;;;;;;5117378;28;20039;-66
2023/03/04 07:50:03;;;;;;;9.27;1.52;;;7.80;99.90;;;;;;5116015;28;20023;-65
2023/03/04 07:52:29;;;;;;;12.57;2.00;;;7.70;99.90;;;;;;5099063;28;20073;-65
2023/03/04 07:54:55;;;;;;;9.57;2.10;;;7.80;99.90;;;;;;5115964;28;20047;-66
2023/03/04 07:57:21;;;;;;;9.90;1.63;;;7.80;99.90;;;;;;5082368;28;20126;-66
2023/03/04 07:59:47;;;;;;;10.43;2.00;;;7.90;99.90;;;;;;5116533;28;20035;-65
2023/03/04 08:02:14;;;;;;;7.93;1.52;;;7.90;99.90;;;;;;5119562;28;20035;-66
2023/03/04 08:04:40;;;;;;;9.60;1.50;;;8.10;99.90;;;;;;5120641;28;20027;-66
2023/03/04 08:07:06;;;;;;;8.73;2.08;;;8.10;99.90;;;;;;5120220;28;20130;-66
2023/03/04 08:09:31;;;;;;;8.55;2.40;;;8.20;99.90;;;;;;5085590;28;20065;-66
2023/03/04 08:11:57;;;;;;;8.07;1.92;;;8.30;99.90;;;;;;5102498;28;20032;-66
2023/03/04 08:14:23;;;;;;;12.43;2.25;;;8.30;99.90;;;;;;5120682;28;20076;-66
2023/03/04 08:16:49;;;;;;;8.43;2.20;;;8.10;99.90;;;;;;5102373;28;20043;-66
2023/03/04 08:19:14;;;;;;;8.52;4.25;;;8.10;99.90;;;;;;5119382;28;20364;-66
2023/03/04 08:21:40;;;;;;;11.38;3.42;;;8.00;99.90;;;;;;5120016;28;20043;-66
2023/03/04 08:24:09;;;;;;;11.57;2.80;;;8.00;99.90;;;;;;5120009;28;20303;-66
2023/03/04 08:26:42;;;;;;;7.10;2.60;;;8.10;99.90;;;;;;5102551;28;20084;-67
2023/03/04 08:29:13;;;;;;;6.20;2.10;;;8.10;99.90;;;;;;5119958;28;20264;-65
2023/03/04 08:31:39;;;;;;;9.27;2.20;;;8.20;99.90;;;;;;5119027;28;20032;-66
2023/03/04 08:34:07;;;;;;;9.68;2.28;;;8.20;99.90;;;;;;5119766;28;20035;-66
2023/03/04 08:36:33;;;;;;;5.88;2.67;;;8.10;99.90;;;;;;5118929;28;20415;-66
2023/03/04 08:38:59;;;;;;;8.93;2.60;;;8.10;99.90;;;;;;5118926;28;20401;-66
2023/03/04 08:41:26;;;;;;;8.57;2.47;;;8.10;99.90;;;;;;5119687;28;20086;-67
2023/03/04 08:43:52;;;;;;;11.15;2.72;;;8.20;99.90;;;;;;5118933;28;20032;-64
2023/03/04 08:46:18;;;;;;;8.75;2.53;;;8.20;99.90;;;;;;5101779;28;20299;-65
2023/03/04 08:48:44;;;;;;;9.93;2.67;;;8.30;99.90;;;;;;5119519;28;20039;-65
2023/03/04 08:51:12;;;;;;;7.38;2.40;;;8.40;99.90;;;;;;5118757;28;20027;-65
2023/03/04 08:53:38;;;;;;;10.52;2.33;;;8.50;99.90;;;;;;5119281;28;20119;-64
2023/03/04 08:56:05;;;;;;;7.35;2.30;;;8.50;99.90;;;;;;5118572;28;20037;-65
2023/03/04 08:58:31;;;;;;;9.43;2.70;;;8.50;99.90;;;;;;5119324;27;20119;-66
2023/03/04 09:00:59;;;;;;;12.05;3.80;;;8.50;99.90;;;;;;5119238;28;20023;-65
2023/03/04 09:03:25;;;;;;;9.13;2.67;;;8.60;99.90;;;;;;5118480;28;20059;-65
2023/03/04 09:05:51;;;;;;;16.00;3.20;;;8.70;99.90;;;;;;5119345;27;20092;-65
2023/03/04 09:08:17;;;;;;;8.52;2.55;;;8.80;99.90;;;;;;5119032;28;20031;-65
2023/03/04 09:10:45;;;;;;;9.25;2.65;;;8.80;99.90;;;;;;5117725;28;20035;-66
2023/03/04 09:13:12;;;;;;;11.15;2.67;;;8.90;99.90;;;;;;5117243;28;20024;-66
2023/03/04 09:15:43;;;;;;;9.95;2.72;;;8.90;99.90;;;;;;5118214;28;20394;-66
2023/03/04 09:18:09;;;;;;;12.27;3.08;;;9.00;99.90;;;;;;5118111;28;20039;-65
2023/03/04 09:20:35;;;;;;;13.35;2.42;;;9.00;99.90;;;;;;5117977;28;20107;-65
2023/03/04 09:23:01;;;;;;;8.00;2.30;;;9.10;99.90;;;;;;5117881;28;20036;-64
2023/03/04 09:25:28;;;;;;;8.23;2.00;;;9.20;99.90;;;;;;5117894;28;20341;-66
2023/03/04 09:27:54;;;;;;;9.50;2.55;;;9.30;99.90;;;;;;5118476;28;20088;-67
2023/03/04 09:30:20;;;;;;;7.75;2.40;;;9.40;99.90;;;;;;5100706;28;20130;-64
2023/03/04 09:32:45;;;;;;;8.38;2.05;;;9.40;99.90;;;;;;5117742;28;20070;-64
2023/03/04 09:35:11;;;;;;;8.88;2.50;;;9.50;99.90;;;;;;5118323;28;20097;-65
2023/03/04 09:37:37;;;;;;;7.28;2.10;;;9.40;99.90;;;;;;5118471;28;20035;-66
2023/03/04 09:40:04;;;;;;;11.57;2.08;;;9.50;99.90;;;;;;5100918;28;20047;-65
2023/03/04 09:42:35;;;;;;;11.50;2.00;;;9.70;99.90;;;;;;5083760;28;20190;-66
2023/03/04 09:45:02;;;;;;;7.95;1.75;;;9.90;99.90;;;;;;5117523;28;20118;-66
2023/03/04 09:47:29;;;;;;;8.52;2.25;;;10.00;99.90;;;;;;5118290;28;20038;-66
2023/03/04 09:50:02;;;;;;;8.75;2.10;;;10.30;99.90;;;;;;5100860;28;20047;-67
2023/03/04 09:52:37;;;;;;;6.15;1.80;;;10.50;99.90;;;;;;5117068;28;20035;-66
2023/03/04 09:55:40;;;;;;;7.68;1.30;;;10.70;99.90;;;;;;5118152;28;20114;-66
2023/03/04 09:58:32;;;;;;;6.78;1.48;;;11.20;99.90;;;;;;5117310;28;20027;-66
2023/03/04 10:01:01;;;;;;;4.97;1.60;;;11.20;99.90;;;;;;5118024;27;20050;-67
2023/03/04 10:03:41;;;;;;;6.65;1.60;;;11.00;99.90;;;;;;5117917;28;20339;-66
2023/03/04 10:06:13;;;;;;;7.00;1.60;;;10.80;99.90;;;;;;5117954;28;20059;-66
2023/03/04 10:09:00;;;;;;;8.05;1.42;;;10.90;99.90;;;;;;5117903;28;20042;-66
2023/03/04 10:11:45;;;;;;;3.88;1.27;;;10.90;99.90;;;;;;5117840;28;20438;-67
2023/03/04 10:14:36;;;;;;;7.40;1.30;;;11.00;99.90;;;;;;5118630;28;20379;-67
2023/03/04 10:17:10;;;;;;;2.75;1.13;;;11.20;99.90;;;;;;5100040;28;20192;-65
2023/03/04 10:19:59;;;;;;;7.30;1.25;;;11.10;99.90;;;;;;5118032;28;20024;-65
2023/03/04 10:22:40;;;;;;;6.95;1.25;;;10.90;99.90;;;;;;5116611;28;20403;-65
2023/03/04 10:25:23;;;;;;;5.28;1.25;;;10.80;99.90;;;;;;5117799;28;20027;-65
2023/03/04 10:28:15;;;;;;;8.55;1.83;;;10.60;99.90;;;;;;5117563;28;20028;-66
2023/03/04 10:30:47;;;;;;;6.13;1.35;;;10.40;99.90;;;;;;5111993;27;20036;-64
2023/03/04 10:33:19;;;;;;;7.35;1.33;;;10.30;99.90;;;;;;5116783;28;20069;-64
2023/03/04 10:35:51;;;;;;;7.35;1.58;;;10.10;99.90;;;;;;5116970;28;20027;-65
2023/03/04 10:38:19;;;;;;;4.15;1.42;;;10.10;99.90;;;;;;5116828;28;20032;-66
2023/03/04 10:40:45;;;;;;;3.65;1.33;;;10.20;99.90;;;;;;5117453;28;20027;-65
2023/03/04 10:43:19;;;;;;;6.78;1.40;;;10.20;99.90;;;;;;5083330;28;20050;-66
2023/03/04 10:45:45;;;;;;;7.05;2.05;;;10.20;99.90;;;;;;5116654;28;20303;-66
2023/03/04 10:48:24;;;;;;;6.30;1.63;;;10.20;99.90;;;;;;5117606;28;20092;-66
2023/03/04 10:50:50;;;;;;;5.50;1.70;;;10.40;99.90;;;;;;5116586;28;20106;-66
2023/03/04 10:53:38;;;;;;;10.23;1.70;;;10.40;99.90;;;;;;5117747;28;20126;-66
2023/03/04 10:56:25;;;;;;;5.43;1.58;;;10.70;99.90;;;;;;5117370;28;20413;-65
2023/03/04 10:58:50;;;;;;;5.90;1.92;;;10.80;99.90;;;;;;5117611;28;20375;-66
2023/03/04 11:01:23;;;;;;;4.40;1.30;;;10.80;99.90;;;;;;5117195;28;20100;-66
2023/03/04 11:03:50;;;;;;;5.90;1.80;;;10.80;99.90;;;;;;5084818;28;20039;-66
2023/03/04 11:06:19;;;;;;;4.00;1.77;;;10.80;99.90;;;;;;5116511;28;20113;-67
2023/03/04 11:08:56;;;;;;;4.90;1.52;;;10.80;99.90;;;;;;5099422;28;20265;-66
2023/03/04 11:11:23;;;;;;;2.83;1.30;;;10.90;99.90;;;;;;5117153;28;20287;-66
2023/03/04 11:13:59;;;;;;;5.88;1.60;;;11.10;99.90;;;;;;5117149;28;20043;-68
2023/03/04 11:16:31;;;;;;;5.95;1.23;;;11.20;99.90;;;;;;5116496;28;20024;-67
2023/03/04 11:19:12;;;;;;;5.40;1.47;;;11.10;99.90;;;;;;5099427;28;20114;-68
2023/03/04 11:21:40;;;;;;;4.63;1.70;;;11.00;99.90;;;;;;5117464;28;20631;-67
2023/03/04 11:24:16;;;;;;;3.75;1.65;;;11.00;99.90;;;;;;5116293;28;20291;-67
2023/03/04 11:26:47;;;;;;;14.07;2.42;;;11.00;99.90;;;;;;5116804;28;20429;-67
2023/03/04 11:29:37;;;;;;;4.47;1.95;;;11.10;99.90;;;;;;5099311;28;20119;-67
2023/03/04 11:32:19;;;;;;;4.78;1.50;;;10.90;99.90;;;;;;5117002;28;20028;-67
2023/03/04 11:34:53;;;;;;;5.63;1.52;;;10.70;99.90;;;;;;5116739;28;20027;-69
2023/03/04 11:37:44;;;;;;;6.40;2.15;;;10.70;99.90;;;;;;5103174;28;20423;-68
2023/03/04 11:40:22;;;;;;;5.00;1.40;;;11.20;99.90;;;;;;5120121;28;20337;-68
2023/03/04 11:43:10;;;;;;;5.90;1.52;;;11.50;99.90;;;;;;5120143;28;20031;-68
2023/03/04 11:46:09;;;;;;;9.13;1.88;;;11.70;99.90;;;;;;5120688;28;20032;-69
2023/03/04 11:48:37;;;;;;;3.92;1.60;;;12.00;99.90;;;;;;5120336;28;20035;-67
2023/03/04 11:51:08;;;;;;;3.63;1.40;;;11.90;99.90;;;;;;5102963;28;20039;-68
2023/03/04 11:53:56;;;;;;;8.02;1.60;;;12.00;99.90;;;;;;5120503;28;20459;-68
2023/03/04 11:56:34;;;;;;;3.97;1.50;;;12.00;99.90;;;;;;5120563;28;20027;-68
2023/03/04 11:59:37;;;;;;;4.20;1.80;;;11.90;99.90;;;;;;5121121;28;20034;-68
2023/03/04 12:02:42;;;;;;;3.55;1.40;;;11.70;99.90;;;;;;5119533;28;20055;-68
2023/03/04 12:05:32;;;;;;;2.60;1.30;;;11.50;99.90;;;;;;5120273;28;20111;-66
2023/03/04 12:08:19;;;;;;;2.35;1.40;;;11.30;99.90;;;;;;5119487;28;20035;-68
2023/03/04 12:10:52;;;;;;;3.35;1.38;;;11.10;99.90;;;;;;5102600;28;20032;-68
2023/03/04 12:13:40;;;;;;;2.92;1.55;;;11.20;99.90;;;;;;5120329;28;20028;-68
2023/03/04 12:16:09;;;;;;;3.35;1.90;;;10.90;99.90;;;;;;5120177;28;20024;-68
2023/03/04 12:18:37;;;;;;;5.43;1.95;;;10.80;99.90;;;;;;5120147;28;20074;-69
2023/03/04 12:21:14;;;;;;;2.75;1.77;;;10.70;99.90;;;;;;5120124;28;20295;-67
2023/03/04 12:23:54;;;;;;;3.80;1.60;;;10.60;99.90;;;;;;5120279;28;20259;-68
2023/03/04 12:26:24;;;;;;;4.13;1.90;;;10.60;99.90;;;;;;5119192;28;20188;-68
2023/03/04 12:29:24;;;;;;;3.53;1.70;;;10.80;99.90;;;;;;5119145;28;20028;-68
2023/03/04 12:32:14;;;;;;;2.85;1.75;;;11.20;99.90;;;;;;5082824;28;20066;-67
2023/03/04 12:35:03;;;;;;;3.63;2.35;;;11.70;99.90;;;;;;5119947;28;20028;-67
2023/03/04 12:37:49;;;;;;;2.65;1.40;;;12.30;99.90;;;;;;5118967;28;20032;-67
2023/03/04 12:40:29;;;;;;;2.10;1.38;;;12.70;99.90;;;;;;5119802;28;20104;-67
2023/03/04 12:43:08;;;;;;;3.35;1.30;;;12.80;99.90;;;;;;5119898;28;20353;-69
2023/03/04 12:45:40;;;;;;;1.55;1.05;;;12.80;99.90;;;;;;5118724;28;20403;-69
2023/03/04 12:48:25;;;;;;;3.55;1.10;;;12.60;99.90;;;;;;5118823;28;20054;-68
2023/03/04 12:51:08;;;;;;;2.80;1.50;;;12.50;99.90;;;;;;5119695;28;20058;-68
2023/03/04 12:53:48;;;;;;;2.13;1.33;;;12.20;99.90;;;;;;5119647;28;20055;-69
2023/03/04 12:56:40;;;;;;;1.90;1.52;;;11.80;99.90;;;;;;5118718;28;20077;-69
2023/03/04 12:59:19;;;;;;;3.10;1.90;;;11.60;99.90;;;;;;5090092;28;20082;-69
2023/03/04 13:02:17;;;;;;;2.20;2.00;;;11.50;99.90;;;;;;5119370;28;20310;-71
2023/03/04 13:04:57;;;;;;;5.93;2.20;;;11.10;99.90;;;;;;5119367;27;20035;-69